createdAt,value
2022-12-08T04:13:16.325Z,1256.93
2022-12-08T04:16:27.932Z,852.60
2022-12-08T04:19:37.695Z,1183.90
2022-12-08T04:22:47.361Z,1235.90
2022-12-08T04:25:57.370Z,877.00
2022-12-08T04:29:08.444Z,888.37
2022-12-08T04:32:18.162Z,1255.27
2022-12-08T04:35:27.923Z,826.53
2022-12-08T04:38:37.894Z,1999.90
2022-12-08T04:41:47.641Z,1999.90
2022-12-08T04:44:58.531Z,1999.90
2022-12-08T04:48:08.712Z,1999.90
2022-12-08T04:51:19.931Z,799.40
2022-12-08T04:54:29.609Z,1999.90
2022-12-08T04:57:39.300Z,1999.90
2022-12-08T05:00:50.618Z,892.63
2022-12-08T05:04:00.383Z,907.10
2022-12-08T05:07:10.123Z,803.73
2022-12-08T05:10:19.750Z,884.20
2022-12-08T05:13:29.460Z,711.73
2022-12-08T05:16:40.805Z,791.83
2022-12-08T05:19:53.381Z,746.80
2022-12-08T05:23:03.130Z,621.53
2022-12-08T05:26:12.890Z,686.83
2022-12-08T05:29:22.693Z,764.53
2022-12-08T05:32:33.734Z,737.93
2022-12-08T05:35:43.962Z,642.40
2022-12-08T05:38:53.641Z,761.00
2022-12-08T05:42:03.325Z,744.03
2022-12-08T05:45:12.963Z,1147.50
2022-12-08T05:48:23.997Z,675.40
2022-12-08T05:51:33.742Z,686.80
2022-12-08T05:54:43.585Z,679.73
2022-12-08T05:57:53.340Z,823.07
2022-12-08T08:04:07.053Z,675.40
2022-12-08T08:07:16.815Z,587.13
2022-12-08T08:10:26.703Z,557.37
2022-12-08T08:13:37.221Z,564.17
2022-12-08T08:16:47.502Z,473.53
2022-12-08T08:19:58.734Z,509.00
2022-12-08T08:23:08.535Z,619.03
2022-12-08T08:26:18.276Z,604.37
2022-12-08T08:29:28.041Z,497.17
2022-12-08T08:32:38.583Z,435.10
2022-12-08T08:35:49.759Z,634.50
2022-12-08T08:38:59.438Z,595.27
2022-12-08T08:42:09.169Z,437.57
2022-12-08T08:45:18.835Z,624.73
2022-12-08T08:48:29.862Z,655.27
2022-12-08T08:51:40.955Z,473.00
2022-12-08T08:54:50.671Z,520.90
2022-12-08T08:58:00.434Z,666.33
2022-12-08T09:01:10.438Z,577.73
2022-12-08T09:04:21.042Z,623.47
2022-12-08T09:07:32.251Z,469.87
2022-12-08T09:10:42.013Z,466.60
2022-12-08T09:13:52.879Z,405.20
2022-12-08T09:17:02.625Z,430.53
2022-12-08T09:20:12.545Z,367.20
2022-12-08T09:23:23.820Z,391.37
2022-12-08T09:26:33.529Z,392.97
2022-12-08T09:29:43.274Z,343.10
2022-12-08T09:32:53.012Z,322.73
2022-12-08T09:36:03.820Z,414.30
2022-12-08T09:39:14.833Z,396.20
2022-12-08T09:42:34.442Z,353.37
2022-12-08T09:45:45.189Z,352.63
2022-12-08T09:49:00.366Z,342.00
2022-12-08T09:52:17.273Z,315.87
2022-12-08T09:55:39.681Z,392.90
2022-12-08T09:58:53.803Z,395.40
2022-12-08T10:02:09.117Z,428.13
2022-12-08T10:05:18.912Z,409.57
2022-12-08T10:08:35.889Z,323.77
2022-12-08T10:11:58.602Z,308.70
2022-12-08T10:15:31.454Z,366.33
2022-12-08T10:18:42.201Z,320.83
2022-12-08T10:21:52.361Z,336.33
2022-12-08T10:25:08.164Z,313.83
2022-12-08T10:28:19.237Z,307.10
2022-12-08T10:31:31.297Z,340.23
2022-12-08T10:34:59.733Z,300.43
2022-12-08T10:38:19.221Z,280.57
2022-12-08T10:41:28.940Z,233.50
2022-12-08T10:44:54.140Z,235.63
2022-12-08T10:48:06.589Z,281.30
2022-12-08T10:51:24.941Z,193.57
2022-12-08T10:54:37.355Z,197.23
2022-12-08T10:57:48.946Z,150.13
2022-12-08T11:01:04.117Z,139.30
2022-12-08T11:04:18.154Z,153.73
2022-12-08T11:07:29.026Z,138.73
2022-12-08T11:10:45.027Z,132.30
2022-12-08T11:13:54.701Z,162.57
2022-12-08T11:17:09.341Z,155.80
2022-12-08T11:20:22.714Z,172.90
2022-12-08T11:23:35.889Z,163.17
2022-12-08T11:26:52.170Z,183.07
2022-12-08T11:30:03.245Z,182.50
2022-12-08T11:33:19.288Z,201.87
2022-12-08T11:36:33.091Z,219.33
2022-12-08T11:39:48.711Z,243.00
2022-12-08T11:43:07.563Z,270.63
2022-12-08T11:46:22.335Z,241.27
2022-12-08T11:49:37.632Z,247.93
2022-12-08T11:52:50.781Z,313.23
2022-12-08T11:56:04.765Z,265.83
2022-12-08T11:59:20.865Z,302.83
2022-12-08T12:02:38.993Z,282.03
2022-12-08T12:06:13.705Z,298.00
2022-12-08T12:09:45.363Z,254.90
2022-12-08T12:13:06.498Z,269.77
2022-12-08T12:16:26.359Z,264.67
2022-12-08T12:19:39.727Z,287.43
2022-12-08T12:22:56.330Z,273.03
2022-12-08T12:26:08.455Z,274.60
2022-12-08T12:29:20.912Z,244.17
2022-12-08T12:32:44.382Z,254.90
2022-12-08T12:35:56.981Z,249.87
2022-12-08T12:39:14.137Z,213.97
2022-12-08T12:42:40.878Z,244.07
2022-12-08T12:45:50.912Z,265.90
2022-12-08T12:49:28.730Z,238.57
2022-12-08T12:52:41.879Z,279.50
2022-12-08T12:55:55.705Z,258.97
2022-12-08T12:59:22.903Z,208.23
2022-12-08T13:02:35.285Z,250.23
2022-12-08T13:05:51.645Z,259.23
2022-12-08T13:09:01.938Z,311.77
2022-12-08T13:12:24.323Z,305.67
2022-12-08T13:15:37.481Z,320.33
2022-12-08T13:18:49.780Z,334.07
2022-12-08T13:21:59.871Z,351.63
2022-12-08T13:25:36.810Z,383.90
2022-12-08T13:29:15.205Z,378.73
2022-12-08T13:36:24.976Z,440.30
2022-12-08T13:39:42.159Z,454.33
2022-12-08T13:43:01.827Z,441.77
2022-12-08T13:51:23.734Z,422.73
2022-12-08T13:57:08.582Z,582.83
2022-12-08T14:00:22.975Z,446.13
2022-12-08T14:03:48.558Z,461.77
2022-12-08T14:07:10.947Z,428.13
2022-12-08T14:10:23.112Z,483.33
2022-12-08T14:13:34.937Z,516.57
2022-12-08T14:16:51.031Z,528.87
2022-12-08T14:20:04.885Z,469.93
2022-12-08T14:23:18.904Z,543.80
2022-12-08T14:26:33.585Z,528.90
2022-12-08T14:29:45.619Z,406.40
2022-12-08T14:32:58.401Z,441.10
2022-12-08T14:36:15.898Z,459.63
2022-12-08T14:39:28.099Z,507.10
2022-12-08T14:42:44.697Z,595.73
2022-12-08T14:45:58.429Z,664.23
2022-12-08T14:49:33.222Z,515.27
2022-12-08T14:52:45.876Z,637.80
2022-12-08T14:55:55.776Z,712.53
2022-12-08T14:59:12.696Z,691.27
2022-12-08T15:02:28.477Z,662.30
2022-12-08T15:05:39.271Z,663.43
2022-12-08T15:08:55.985Z,746.50
2022-12-08T15:12:07.197Z,801.53
2022-12-08T15:15:18.170Z,732.97
2022-12-08T15:18:33.495Z,771.93
2022-12-08T15:21:44.206Z,828.10
2022-12-08T15:24:56.510Z,758.50
2022-12-08T15:28:06.239Z,782.47
2022-12-08T15:31:16.344Z,801.13
2022-12-08T15:34:26.661Z,799.23
2022-12-08T15:37:38.284Z,816.33
2022-12-08T15:40:49.971Z,774.57
2022-12-08T15:43:59.926Z,806.33
2022-12-08T15:47:16.373Z,810.87
2022-12-08T15:50:26.104Z,857.73
2022-12-08T15:53:35.813Z,836.40
2022-12-08T15:57:18.126Z,860.17
2022-12-08T16:00:51.993Z,866.00
2022-12-08T16:07:28.848Z,855.50
2022-12-08T16:11:23.815Z,860.30
2022-12-08T16:14:54.656Z,845.27
2022-12-08T16:17:40.259Z,883.90
2022-12-08T16:24:19.929Z,862.20
2022-12-08T16:31:02.299Z,823.10
2022-12-08T16:34:11.970Z,871.80
2022-12-08T16:37:23.920Z,842.53
2022-12-08T16:40:53.750Z,848.97
2022-12-08T16:44:04.519Z,872.03
2022-12-08T16:47:15.488Z,834.50
2022-12-08T16:50:27.131Z,802.43
2022-12-08T16:53:36.870Z,799.70
2022-12-08T16:56:46.540Z,799.27
2022-12-08T16:59:56.646Z,804.27
2022-12-08T17:03:09.253Z,761.60
2022-12-08T17:06:21.619Z,758.23
2022-12-08T17:09:32.458Z,780.43
2022-12-08T17:12:42.888Z,883.20
2022-12-08T17:15:52.521Z,764.90
2022-12-08T17:19:03.604Z,689.27
2022-12-08T17:22:13.376Z,706.30
2022-12-08T17:25:23.115Z,736.97
2022-12-08T17:28:59.020Z,709.00
2022-12-08T17:32:02.570Z,752.17
2022-12-08T17:35:14.292Z,732.57
2022-12-08T17:38:24.315Z,710.00
2022-12-08T17:41:36.661Z,759.33
2022-12-08T17:44:46.676Z,736.17
2022-12-08T17:47:56.358Z,791.03
2022-12-08T17:51:10.367Z,761.13
2022-12-08T17:54:20.649Z,806.00
2022-12-08T17:57:30.327Z,792.73
2022-12-08T18:00:40.029Z,772.33
2022-12-08T18:03:49.708Z,782.37
2022-12-08T18:07:03.390Z,801.97
2022-12-08T18:10:13.418Z,799.63
2022-12-08T18:13:23.301Z,779.50
2022-12-08T18:16:33.020Z,759.20
2022-12-08T18:19:42.744Z,782.73
2022-12-08T18:22:53.821Z,796.47
2022-12-08T18:26:05.106Z,749.93
2022-12-08T18:29:14.860Z,722.00
2022-12-08T18:32:24.533Z,701.80
2022-12-08T18:35:34.720Z,657.50
2022-12-08T18:38:46.172Z,684.70
2022-12-08T18:41:57.292Z,671.67
2022-12-08T18:45:07.938Z,714.90
2022-12-08T18:48:17.562Z,737.00
2022-12-08T18:51:27.424Z,793.77
2022-12-08T18:58:10.822Z,691.67
2022-12-08T19:01:20.633Z,669.07
2022-12-08T19:04:32.623Z,708.17
2022-12-08T19:07:45.612Z,663.03
2022-12-08T19:10:56.844Z,715.60
2022-12-08T19:14:07.256Z,651.20
2022-12-08T19:17:16.945Z,764.47
2022-12-08T19:20:27.387Z,747.00
2022-12-08T19:23:37.209Z,795.57
2022-12-08T19:26:48.224Z,671.27
2022-12-08T19:29:58.081Z,733.87
2022-12-08T19:33:07.714Z,757.97
2022-12-08T19:36:19.813Z,777.43
2022-12-08T19:39:40.623Z,789.90
2022-12-08T19:43:02.590Z,886.60
2022-12-08T19:46:12.517Z,859.03
2022-12-08T19:49:22.232Z,916.03
2022-12-08T19:52:31.918Z,721.43
2022-12-08T19:55:41.990Z,838.63
2022-12-08T19:58:52.995Z,940.67
2022-12-08T20:02:02.826Z,943.03
2022-12-08T20:05:13.678Z,932.60
2022-12-08T20:08:23.536Z,849.23
2022-12-08T20:11:33.352Z,883.07
2022-12-08T20:14:46.219Z,916.63
2022-12-08T20:17:56.053Z,845.77
2022-12-08T20:21:06.527Z,736.77
2022-12-08T20:24:17.774Z,717.57
2022-12-08T20:27:28.953Z,835.20
2022-12-08T20:30:41.333Z,774.23
2022-12-08T20:33:51.782Z,689.97
2022-12-08T20:37:01.459Z,694.83
2022-12-08T20:40:11.687Z,739.30
2022-12-08T20:43:21.761Z,839.80
2022-12-08T20:46:33.207Z,892.40
2022-12-08T20:49:43.122Z,951.83
2022-12-08T20:52:52.940Z,939.40
2022-12-08T20:56:02.624Z,915.20
